• Join FlightAware (Why Join?)
  • Login
  • US Flag 
10:57AM EDT


 

Airport Tracker/Info


-or-


 

Live Flight TrackerFlight Track Log ✈ DAL110 ✈ 20-Apr-2013 ✈ KATL - KLAX

Flight Track Log - Related Links

Times and Time Zones

All times are in EDT time to prevent confusion due to time zone crossing. See the DAL110 flight status page for this flight to view local times or setup timezone preferences in your user account.

Time Position Orientation Groundspeed Altitude Reporting Facility
EDT Latitude Longitude Course Direction KTS MPH feet Rate Location/Type
08:34AM 33.6470 -84.4430 269° West 174 200 1,300  Level FlightAware
08:34AM 33.6510 -84.4860 276° West 197 227 2,900 2,220 Climbing FlightAware
08:35AM 33.6590 -84.5230 285° West 232 267 4,100 2,100 Climbing FlightAware
08:35AM 33.6660 -84.5600 283° West 256 295 5,200 2,820 Climbing FlightAware
08:36AM 33.6730 -84.5950 284° West 255 293 6,700 3,480 Climbing FlightAware
08:36AM 33.6800 -84.6390 281° West 259 298 8,400 3,000 Climbing FlightAware
08:37AM 33.6850 -84.6770 279° West 260 299 9,500 2,460 Climbing FlightAware
08:37AM 33.6950 -84.7340 282° West 281 323 11,100 2,040 Climbing FlightAware
08:38AM 33.7090 -84.8180 281° West 327 376 12,400 2,460 Climbing FlightAware
08:39AM 33.7190 -84.8890 280° West 332 382 14,600 2,940 Climbing FlightAware
08:39AM 33.7310 -84.9760 279° West 353 406 16,600 2,640 Climbing FlightAware
08:40AM 33.7420 -85.0500 280° West 364 419 18,400 2,760 Climbing FlightAware
08:41AM 33.7570 -85.1560 280° West 382 440 20,800 2,700 Climbing FlightAware
08:42AM 33.7720 -85.2610 280° West 394 453 22,900 1,560 Climbing FlightAware
08:42AM 33.7860 -85.3420 282° West 399 459 23,200 2,820 Climbing FlightAware
08:45AM 33.8397 -85.6458 282° West 425 489 30,900 3,420 Climbing FlightAware ADS-B
08:46AM 33.8776 -85.7727 290° West 418 481 33,700 2,820 Climbing FlightAware ADS-B
08:46AM 33.8991 -85.8393 291° West 412 474 35,100 2,040 Climbing FlightAware ADS-B
08:47AM 33.9207 -85.9074 291° West 414 476 35,900 1,560 Climbing FlightAware ADS-B
08:48AM 33.9685 -86.0585 291° West 416 479 37,800 1,380 Climbing FlightAware ADS-B
08:48AM 33.9833 -86.1058 291° West 415 478 38,000 300 Climbing FlightAware ADS-B
08:48AM 33.9923 -86.1370 289° West 411 473 38,000  Level FlightAware ADS-B
08:49AM 34.0187 -86.2324 288° West 412 474 38,000  Level FlightAware ADS-B
08:50AM 34.0522 -86.3511 289° West 419 482 38,000  Level FlightAware ADS-B
08:51AM 34.0772 -86.4391 289° West 419 482 38,000  Level FlightAware ADS-B
08:51AM 34.1011 -86.5232 289° West 422 486 38,000  Level FlightAware ADS-B
08:52AM 34.1226 -86.5997 289° West 422 486 38,000  Level FlightAware ADS-B
08:52AM 34.1418 -86.6683 289° West 422 486 38,000  Level FlightAware ADS-B
08:53AM 34.1594 -86.7325 289° West 420 483 38,000  Level Memphis Center
08:54AM 34.1967 -86.8667 289° West 420 483 38,000  Level Memphis Center
08:55AM 34.2383 -87.0131 289° West 420 483 38,000  Level Memphis Center
08:56AM 34.2731 -87.1500 287° West 426 490 38,000  Level Memphis Center
08:57AM 34.3100 -87.2844 288° West 421 484 38,000  Level Memphis Center
08:58AM 34.3508 -87.4189 290° West 421 484 38,000  Level Memphis Center
08:59AM 34.3850 -87.5533 287° West 421 484 38,000  Level Memphis Center
09:00AM 34.4192 -87.6733 289° West 421 484 38,000  Level Memphis Center
09:01AM 34.4553 -87.8081 288° West 421 484 38,000  Level Memphis Center
09:02AM 34.4914 -87.9456 288° West 421 484 38,000  Level Memphis Center
09:03AM 34.5253 -88.0783 287° West 421 484 38,000  Level Memphis Center
09:04AM 34.5656 -88.2311 288° West 422 486 38,000  Level Memphis Center
09:05AM 34.6011 -88.3639 288° West 422 486 38,000  Level Memphis Center
09:06AM 34.6300 -88.4692 288° West 422 486 38,000  Level Memphis Center
09:07AM 34.6717 -88.6247 288° West 411 473 38,000  Level Memphis Center
09:08AM 34.7050 -88.7606 287° West 411 473 38,000  Level Memphis Center
09:09AM 34.7400 -88.8939 288° West 422 486 38,000  Level Memphis Center
09:10AM 34.7750 -89.0297 287° West 422 486 38,000  Level Memphis Center
09:11AM 34.8117 -89.1683 288° West 428 493 38,000  Level Memphis Center
09:12AM 34.8464 -89.3094 287° West 428 493 38,000  Level Memphis Center
09:13AM 34.8831 -89.4458 288° West 433 498 38,000  Level Memphis Center
09:14AM 34.9194 -89.5847 288° West 433 498 38,000  Level Memphis Center
09:15AM 34.9536 -89.7314 286° West 441 507 38,000  Level Memphis Center
09:16AM 34.9939 -89.8781 289° West 454 522 38,000  Level Memphis Center
09:17AM 35.0256 -90.0172 286° West 448 516 38,000  Level Memphis Center
09:18AM 35.0572 -90.1542 286° West 429 494 38,000  Level Memphis Center
09:19AM 35.0844 -90.2886 284° West 421 484 38,000  Level Memphis Center
09:20AM 35.1178 -90.4231 287° West 415 478 38,000  Level Memphis Center
09:21AM 35.1492 -90.5578 286° West 409 471 38,000  Level Memphis Center
09:22AM 35.1781 -90.6950 284° West 409 471 38,000  Level Memphis Center
09:23AM 35.2047 -90.8119 286° West 414 476 38,000  Level Memphis Center
09:24AM 35.2333 -90.9469 285° West 414 476 38,000  Level Memphis Center
09:25AM 35.2639 -91.0819 286° West 409 471 38,000  Level Memphis Center
09:26AM 35.2903 -91.2092 284° West 409 471 38,000  Level Memphis Center
09:27AM 35.3206 -91.3419 286° West 409 471 38,000  Level Memphis Center
09:28AM 35.3508 -91.4772 285° West 409 471 38,000  Level Memphis Center
09:29AM 35.3808 -91.6125 285° West 409 471 38,000  Level Memphis Center
09:30AM 35.4064 -91.7478 283° West 415 478 38,000  Level Memphis Center
09:31AM 35.4361 -91.8836 285° West 415 478 38,000  Level Memphis Center
09:32AM 35.4656 -92.0217 285° West 415 478 38,000  Level Memphis Center
09:33AM 35.4950 -92.1575 285° West 415 478 38,000  Level Memphis Center
09:34AM 35.5222 -92.2931 284° West 415 478 38,000  Level Memphis Center
09:35AM 35.5514 -92.4317 285° West 415 478 38,000  Level Memphis Center
09:36AM 35.5781 -92.5728 283° West 415 478 38,000  Level Memphis Center
09:37AM 35.6069 -92.7064 285° West 415 478 38,000  Level Memphis Center
09:38AM 35.6183 -92.8650 275° West 424 488 38,000  Level Memphis Center
09:39AM 35.6217 -93.0081 272° West 424 488 38,000  Level Memphis Center
09:40AM 35.6247 -93.1511 272° West 424 488 38,000  Level Memphis Center
09:41AM 35.6256 -93.2967 270° West 419 482 38,000  Level Memphis Center
09:42AM 35.6244 -93.4294 269° West 413 475 38,000  Level Memphis Center
09:43AM 35.6272 -93.5700 271° West 413 475 38,000  Level Memphis Center
09:44AM 35.6278 -93.7106 270° West 413 475 38,000  Level Memphis Center
09:45AM 35.6278 -93.8561 270° West 418 481 38,000  Level Memphis Center
09:46AM 35.6303 -93.9967 271° West 418 481 38,000  Level Memphis Center
09:47AM 35.6322 -94.1400 271° West 418 481 38,000  Level Memphis Center
09:48AM 35.6322 -94.2728 270° West 424 488 38,000  Level Memphis Center
09:49AM 35.6297 -94.4156 269° West 424 488 38,000  Level Memphis Center
09:50AM 35.6328 -94.5742 271° West 419 482 38,000  Level Memphis Center
09:52AM 35.6336 -94.9133 270° West 425 489 38,000  Level Fort Worth Center
09:53AM 35.6322 -95.0564 269° West 420 483 38,000  Level Fort Worth Center
09:54AM 35.6314 -95.1689 270° West 413 475 38,000  Level Kansas City Center
10:00AM 35.6270 -95.9980 270° West 426 490 38,000  Level FlightAware
10:01AM 35.6260 -96.0930 269° West 428 493 38,000  Level FlightAware
10:01AM 35.6250 -96.2080 269° West 428 493 38,000  Level FlightAware
10:02AM 35.6230 -96.3400 269° West 430 495 38,000  Level FlightAware
10:03AM 35.6220 -96.4530 269° West 430 495 38,000  Level FlightAware
10:04AM 35.6200 -96.5920 269° West 433 498 38,000  Level FlightAware
10:05AM 35.6190 -96.6840 269° West 434 499 38,000  Level FlightAware
10:05AM 35.6170 -96.7940 269° West 434 499 38,000  Level FlightAware
10:06AM 35.6150 -96.9070 269° West 433 498 38,000  Level FlightAware
10:07AM 35.6120 -97.0320 268° West 433 498 38,000  Level FlightAware
10:08AM 35.6100 -97.1160 268° West 433 498 38,000  Level FlightAware
10:08AM 35.6080 -97.1990 268° West 433 498 38,000  Level FlightAware
10:09AM 35.6080 -97.3420 270° West 423 487 38,000  Level FlightAware
10:10AM 35.6050 -97.4690 268° West 424 488 38,000  Level FlightAware
10:11AM 35.6030 -97.5810 269° West 424 488 38,000  Level FlightAware
10:11AM 35.6000 -97.6570 267° West 424 488 38,000  Level FlightAware
10:12AM 35.5980 -97.7790 269° West 423 487 38,000  Level FlightAware
10:13AM 35.5960 -97.8670 268° West 422 486 38,000  Level FlightAware
10:14AM 35.5920 -98.0040 268° West 421 484 38,000  Level FlightAware
10:15AM 35.5890 -98.1250 268° West 420 483 38,000  Level FlightAware
10:15AM 35.5860 -98.2460 268° West 420 483 38,000  Level FlightAware
10:16AM 35.5830 -98.3670 268° West 421 484 38,000  Level FlightAware
10:17AM 35.5800 -98.4480 267° West 421 484 38,000  Level FlightAware
10:18AM 35.5780 -98.5300 268° West 421 484 38,000  Level FlightAware
10:18AM 35.5760 -98.6110 268° West 421 484 38,000  Level FlightAware
10:19AM 35.5730 -98.6920 267° West 421 484 38,000  Level FlightAware
10:20AM 35.5700 -98.7940 268° West 421 484 38,000  Level FlightAware
10:20AM 35.5680 -98.8750 268° West 421 484 38,000  Level FlightAware
10:21AM 35.5660 -98.9570 268° West 421 484 38,000  Level FlightAware
10:22AM 35.5640 -99.0380 268° West 421 484 38,000  Level FlightAware
10:23AM 35.5610 -99.1400 268° West 421 484 38,000  Level FlightAware
10:23AM 35.5580 -99.2210 267° West 421 484 38,000  Level FlightAware
10:24AM 35.5560 -99.3030 268° West 421 484 38,000  Level FlightAware
10:25AM 35.5540 -99.3840 268° West 421 484 38,000  Level FlightAware
10:25AM 35.5510 -99.4650 267° West 421 484 38,000  Level FlightAware
10:26AM 35.5389 -99.7025 267° West 413 475 38,000  Level Albuquerque Center
10:27AM 35.5328 -99.8433 267° West 411 473 38,000  Level Albuquerque Center
10:28AM 35.5250 -100.0108 267° West 409 471 38,000  Level Albuquerque Center
10:29AM 35.5197 -100.1511 267° West 409 471 38,000  Level Albuquerque Center
10:30AM 35.5128 -100.2914 267° West 410 472 38,000  Level Albuquerque Center
10:31AM 35.5075 -100.4308 267° West 408 470 38,000  Level Albuquerque Center
10:32AM 35.5011 -100.5689 267° West 406 467 38,000  Level Albuquerque Center
10:33AM 35.4947 -100.7075 267° West 401 461 38,000  Level Albuquerque Center
10:34AM 35.4869 -100.8447 266° West 404 465 38,000  Level Albuquerque Center
10:35AM 35.4803 -100.9822 267° West 404 465 38,000  Level Albuquerque Center
10:36AM 35.4733 -101.1194 266° West 405 466 38,000  Level Albuquerque Center
10:37AM 35.4661 -101.2567 266° West 407 468 38,000  Level Albuquerque Center
10:38AM 35.4603 -101.4003 267° West 411 473 38,000  Level Albuquerque Center
10:39AM 35.4517 -101.5692 266° West 413 475 38,000  Level Albuquerque Center
10:40AM 35.4444 -101.7036 266° West 411 473 38,000  Level Albuquerque Center
10:41AM 35.4372 -101.8439 266° West 410 472 38,000  Level Albuquerque Center
10:42AM 35.4267 -101.9744 264° West 412 474 38,000  Level Albuquerque Center
10:43AM 35.4158 -102.1408 265° West 412 474 38,000  Level Albuquerque Center
10:44AM 35.4072 -102.2800 266° West 411 473 38,000  Level Albuquerque Center
10:45AM 35.3994 -102.4197 266° West 413 475 38,000  Level Albuquerque Center
10:46AM 35.3900 -102.5611 265° West 416 479 38,000  Level Albuquerque Center
10:47AM 35.3808 -102.7178 266° West 416 479 38,000  Level Albuquerque Center
10:48AM 35.3711 -102.8586 265° West 413 475 38,000  Level Albuquerque Center
10:49AM 35.3622 -102.9992 266° West 412 474 38,000  Level Albuquerque Center
10:50AM 35.3525 -103.1408 265° West 413 475 38,000  Level Albuquerque Center
10:51AM 35.3428 -103.2811 265° West 411 473 38,000  Level Albuquerque Center
10:52AM 35.3331 -103.4222 265° West 412 474 38,000  Level Albuquerque Center
10:53AM 35.3231 -103.5614 265° West 410 472 38,000  Level Albuquerque Center
10:55AM 35.3133 -103.7011 265° West 409 471 38,000  Level Albuquerque Center
10:56AM 35.3028 -103.8400 265° West 408 470 38,000  Level Albuquerque Center
10:57AM 35.2931 -103.9775 265° West 406 467 38,000  Level Albuquerque Center
10:58AM 35.2800 -104.1431 265° West 407 468 38,000  Level Albuquerque Center
10:59AM 35.2700 -104.2814 265° West 409 471 38,000  Level Albuquerque Center
11:00AM 35.2589 -104.4183 264° West 407 468 38,000  Level Albuquerque Center
11:01AM 35.2481 -104.5553 265° West 405 466 38,000  Level Albuquerque Center
11:02AM 35.2339 -104.7058 263° West 402 463 38,000  Level Albuquerque Center
11:03AM 35.2228 -104.8425 264° West 401 461 38,000  Level Albuquerque Center
11:04AM 35.2122 -104.9811 265° West 404 465 38,000  Level Albuquerque Center
11:10AM 35.1410 -105.7960 265° West 398 458 38,000  Level FlightAware
11:11AM 35.1300 -105.9100 263° West 394 453 38,000  Level FlightAware
11:11AM 35.1210 -106.0160 264° West 390 449 38,000  Level FlightAware
11:12AM 35.1130 -106.1020 264° West 389 448 38,000  Level FlightAware
11:13AM 35.1050 -106.1890 264° West 389 448 38,000  Level FlightAware
11:13AM 35.0950 -106.2860 263° West 391 450 38,000  Level FlightAware
11:14AM 35.0870 -106.3730 264° West 390 449 38,000  Level FlightAware
11:15AM 35.0790 -106.4610 264° West 393 452 38,000  Level FlightAware
11:16AM 35.0690 -106.5640 263° West 393 452 38,000  Level FlightAware
11:16AM 35.0600 -106.6520 263° West 393 452 38,000  Level FlightAware
11:17AM 35.0510 -106.7470 263° West 392 451 38,000  Level FlightAware
11:18AM 35.0420 -106.8350 263° West 394 453 38,000  Level FlightAware
11:18AM 35.0410 -106.9110 269° West 390 449 38,000  Level FlightAware
11:19AM 35.0390 -107.0240 269° West 388 447 38,000  Level FlightAware
11:20AM 35.0370 -107.1110 268° West 387 445 38,000  Level FlightAware
11:20AM 35.0340 -107.1980 268° West 388 447 38,000  Level FlightAware
11:21AM 35.0320 -107.2940 269° West 389 448 38,000  Level FlightAware
11:22AM 35.0290 -107.3960 268° West 389 448 38,000  Level FlightAware
11:22AM 35.0270 -107.4700 268° West 389 448 38,000  Level FlightAware
11:23AM 35.0230 -107.5790 267° West 390 449 38,000  Level FlightAware
11:24AM 35.0210 -107.6670 268° West 389 448 38,000  Level FlightAware
11:25AM 35.0180 -107.7540 268° West 389 448 38,000  Level FlightAware
11:25AM 35.0150 -107.8480 268° West 387 445 38,000  Level FlightAware
11:26AM 35.0120 -107.9400 268° West 387 445 38,000  Level FlightAware
11:27AM 35.0090 -108.0280 268° West 387 445 38,000  Level FlightAware
11:27AM 35.0060 -108.1250 268° West 387 445 38,000  Level FlightAware
11:28AM 35.0020 -108.2060 267° West 388 447 38,000  Level FlightAware
11:29AM 34.9990 -108.3110 268° West 389 448 38,000  Level FlightAware
11:30AM 34.9960 -108.3980 268° West 390 449 38,000  Level FlightAware
11:30AM 34.9930 -108.4870 268° West 390 449 38,000  Level FlightAware
11:31AM 34.9890 -108.5850 267° West 390 449 38,000  Level FlightAware
11:32AM 34.9860 -108.6520 267° West 390 449 38,000  Level FlightAware
11:32AM 34.9820 -108.7550 267° West 388 447 38,000  Level FlightAware
11:33AM 34.9780 -108.8580 267° West 388 447 38,000  Level FlightAware
11:34AM 34.9740 -108.9580 267° West 388 447 38,000  Level FlightAware
11:35AM 34.9700 -109.0600 267° West 387 445 38,000  Level FlightAware
11:35AM 34.9670 -109.1340 267° West 387 445 38,000  Level FlightAware
11:36AM 34.9630 -109.2090 266° West 387 445 38,000  Level FlightAware
11:37AM 34.9600 -109.2830 267° West 387 445 38,000  Level FlightAware
11:37AM 34.9560 -109.3750 267° West 387 445 38,000  Level FlightAware
11:38AM 34.9530 -109.4500 267° West 387 445 38,000  Level FlightAware
11:39AM 34.9500 -109.5240 267° West 387 445 38,000  Level FlightAware
11:39AM 34.9470 -109.5980 267° West 387 445 38,000  Level FlightAware
11:40AM 34.9430 -109.6910 267° West 387 445 38,000  Level FlightAware
11:41AM 34.9390 -109.7650 266° West 387 445 38,000  Level FlightAware
11:42AM 34.9360 -109.8390 267° West 387 445 38,000  Level FlightAware
11:42AM 34.9330 -109.9130 267° West 387 445 38,000  Level FlightAware
11:43AM 34.9300 -109.9870 267° West 387 445 38,000  Level FlightAware
11:44AM 34.8930 -110.1980 258° West 38,000  Level FlightAware
11:45AM 34.8830 -110.3360 265° West 382 440 38,000  Level FlightAware
11:46AM 34.8660 -110.5220 264° West 385 443 38,000  Level FlightAware
11:47AM 34.8560 -110.6000 261° West 384 442 38,000  Level FlightAware
11:48AM 34.8430 -110.7020 261° West 385 443 38,000  Level FlightAware
11:48AM 34.8330 -110.7910 262° West 382 440 38,000  Level FlightAware
11:49AM 34.8230 -110.8700 261° West 382 440 38,000  Level FlightAware
11:50AM 34.8110 -110.9680 262° West 381 438 38,000  Level FlightAware
11:51AM 34.7960 -111.0880 261° West 379 436 38,000  Level FlightAware
11:51AM 34.7810 -111.2030 261° West 381 438 38,000  Level FlightAware
11:52AM 34.7670 -111.3180 262° West 381 438 38,000  Level FlightAware
11:53AM 34.7550 -111.4060 261° West 378 435 38,000  Level FlightAware
11:54AM 34.7450 -111.4860 261° West 378 435 38,000  Level FlightAware
11:54AM 34.7360 -111.5590 261° West 381 438 38,000  Level FlightAware
11:55AM 34.7240 -111.6490 261° West 380 437 38,000  Level FlightAware
11:56AM 34.7090 -111.7610 261° West 381 438 38,000  Level FlightAware
11:56AM 34.6980 -111.8440 261° West 383 441 38,000  Level FlightAware
11:57AM 34.6850 -111.9420 261° West 385 443 38,000  Level FlightAware
11:58AM 34.6770 -112.0060 261° West 385 443 38,000  Level FlightAware
11:59AM 34.6650 -112.0950 261° West 385 443 38,000  Level FlightAware
11:59AM 34.6490 -112.2100 260° West 384 442 38,000  Level FlightAware
12:00PM 34.6380 -112.2930 261° West 383 441 38,000  Level FlightAware
12:01PM 34.6270 -112.3770 261° West 382 440 38,000  Level FlightAware
12:01PM 34.6130 -112.4740 260° West 384 442 38,000  Level FlightAware
12:02PM 34.6020 -112.5590 261° West 384 442 38,000  Level FlightAware
12:03PM 34.5890 -112.6510 260° West 383 441 38,000  Level FlightAware
12:03PM 34.5770 -112.7380 261° West 383 441 38,000  Level FlightAware
12:04PM 34.5630 -112.8330 260° West 381 438 38,000  Level FlightAware
12:05PM 34.5510 -112.9180 260° West 384 442 38,000  Level FlightAware
12:05PM 34.5390 -113.0030 260° West 386 444 38,000  Level FlightAware
12:06PM 34.5260 -113.0980 261° West 387 445 38,000  Level FlightAware
12:07PM 34.5140 -113.1820 260° West 389 448 38,000  Level FlightAware
12:08PM 34.5010 -113.2680 260° West 390 449 38,000  Level FlightAware
12:08PM 34.4870 -113.3660 260° West 389 448 38,000  Level FlightAware
12:09PM 34.4740 -113.4530 260° West 389 448 38,000  Level FlightAware
12:10PM 34.4610 -113.5470 261° West 389 448 38,000  Level FlightAware
12:10PM 34.4480 -113.6330 260° West 388 447 38,000  Level FlightAware
12:11PM 34.4340 -113.7280 260° West 386 444 38,000  Level FlightAware
12:12PM 34.4230 -113.8030 260° West 387 445 38,000  Level FlightAware
12:12PM 34.4080 -113.9010 260° West 388 447 38,000  Level FlightAware
12:13PM 34.3940 -113.9910 259° West 386 444 38,000  Level FlightAware
12:14PM 34.3820 -114.0750 260° West 385 443 38,000  Level FlightAware
12:15PM 34.3660 -114.1770 259° West 386 444 38,000  Level FlightAware
12:15PM 34.3530 -114.2630 260° West 388 447 38,000  Level FlightAware
12:16PM 34.3410 -114.3450 260° West 388 447 38,000  Level FlightAware
12:17PM 34.3220 -114.4650 259° West 389 448 38,000  Level FlightAware
12:17PM 34.3150 -114.5070 259° West 387 445 38,000  Level FlightAware
12:18PM 34.2920 -114.6590 260° West 388 447 38,000  Level FlightAware
12:19PM 34.2770 -114.7500 259° West 388 447 38,000 -480 Level FlightAware
12:20PM 34.2600 -114.8590 259° West 393 452 37,300 -1,320 Descending FlightAware
12:21PM 34.2460 -114.9460 259° West 407 468 36,300 -1,440 Descending FlightAware
12:21PM 34.2310 -115.0410 259° West 420 483 35,300 -1,200 Descending FlightAware
12:22PM 34.2150 -115.1400 259° West 427 491 34,600 -1,080 Descending FlightAware
12:23PM 34.1980 -115.2470 259° West 434 499 33,800 -900 Descending FlightAware
12:23PM 34.1830 -115.3410 259° West 438 504 33,400 -720 Descending FlightAware
12:24PM 34.1670 -115.4400 259° West 441 507 32,900 -480 Descending FlightAware
12:25PM 34.1490 -115.5470 259° West 429 494 32,800 -120 Descending FlightAware
12:26PM 34.1340 -115.6400 259° West 428 493 32,800 -360 Level FlightAware
12:26PM 34.1170 -115.7430 259° West 410 472 32,300 -900 Descending FlightAware
12:27PM 34.1030 -115.8310 259° West 385 443 31,600 -1,320 Descending FlightAware
12:28PM 34.0910 -115.9180 261° West 372 428 30,500 -1,740 Descending FlightAware
12:28PM 34.0780 -116.0050 260° West 365 420 29,200 -1,800 Descending FlightAware
12:29PM 34.0660 -116.0820 259° West 361 415 28,100 -1,440 Descending FlightAware
12:30PM 34.0530 -116.1710 260° West 358 412 27,200 -1,200 Descending FlightAware
12:30PM 34.0410 -116.2500 260° West 356 410 26,400 -1,140 Descending FlightAware
12:31PM 34.0270 -116.3400 259° West 355 409 25,600 -1,080 Descending FlightAware
12:32PM 34.0160 -116.4170 260° West 353 406 24,900 -1,140 Descending FlightAware
12:33PM 34.0050 -116.4940 260° West 349 402 24,100 -1,020 Descending FlightAware
12:33PM 33.9980 -116.5800 264° West 350 403 23,500 -960 Descending FlightAware
12:34PM 33.9920 -116.6570 265° West 344 396 22,800 -1,140 Descending FlightAware
12:35PM 33.9850 -116.7440 264° West 341 392 21,900 -1,380 Descending FlightAware
12:35PM 33.9790 -116.8190 265° West 346 398 20,900 -1,740 Descending FlightAware
12:36PM 33.9710 -116.9070 264° West 354 407 19,500 -1,680 Descending FlightAware
12:37PM 33.9650 -116.9810 264° West 350 403 18,600 -1,380 Descending FlightAware
12:37PM 33.9590 -117.0580 265° West 334 384 17,700 -1,380 Descending FlightAware
12:38PM 33.9520 -117.1440 264° West 332 382 16,700 -1,200 Descending FlightAware
12:39PM 33.9450 -117.2170 263° West 331 381 16,000 -1,080 Descending FlightAware
12:40PM 33.9390 -117.2960 265° West 318 366 15,200 -1,140 Descending FlightAware
12:40PM 33.9340 -117.3570 264° West 327 376 14,500 -1,440 Descending FlightAware
12:41PM 33.9400 -117.3970 280° West 327 376 13,900 -1,620 Descending FlightAware
12:41PM 33.9620 -117.4610 293° West 320 368 12,900 -1,200 Descending FlightAware
12:42PM 33.9850 -117.5230 294° West 289 333 12,300 -1,080 Descending FlightAware
12:43PM 34.0080 -117.5890 293° West 282 325 11,400 -1,200 Descending FlightAware
12:43PM 34.0110 -117.6130 279° West 289 333 11,100 -960 Descending FlightAware
12:43PM 34.0110 -117.6530 270° West 287 330 10,600 -960 Descending FlightAware
12:44PM 34.0060 -117.7050 263° West 285 328 10,000 -1,140 Descending FlightAware
12:44PM 34.0020 -117.7400 262° West 284 327 9,500 -1,680 Descending FlightAware
12:45PM 33.9940 -117.8110 262° West 283 326 8,500 -1,620 Descending FlightAware
12:45PM 33.9890 -117.8580 263° West 286 329 7,900 -1,200 Descending FlightAware
12:46PM 33.9860 -117.8950 264° West 285 328 7,400 -1,140 Descending FlightAware
12:46PM 33.9810 -117.9430 263° West 272 313 6,900 -900 Descending FlightAware
12:47PM 33.9780 -117.9820 265° West 258 297 6,600 -900 Descending FlightAware
12:47PM 33.9760 -118.0010 263° West 258 297 6,300 -1,380 Descending FlightAware
12:48PM 33.9710 -118.0450 262° West 266 306 5,600 -1,620 Descending FlightAware
12:48PM 33.9690 -118.0680 264° West 266 306 5,100 -1,500 Descending FlightAware
12:48PM 33.9660 -118.1030 264° West 255 293 4,600 -1,320 Descending FlightAware
12:49PM 33.9610 -118.1450 262° West 252 290 3,900 -1,440 Descending FlightAware
12:49PM 33.9580 -118.1800 264° West 240 276 3,300 -1,320 Descending FlightAware
12:50PM 33.9540 -118.2170 263° West 226 260 2,700 -1,140 Descending FlightAware
12:50PM 33.9510 -118.2520 264° West 205 236 2,200 -960 Descending FlightAware
12:50PM 33.9490 -118.2700 262° West 204 235 1,900 -600 Descending FlightAware
12:51PM 33.9490 -118.2730 270° West 190 219 1,800 -540 Descending FlightAware
12:51PM 33.9460 -118.2950 261° West 171 197 1,500 -420 Descending FlightAware
12:52PM 33.9430 -118.3260 263° West 162 186 1,400 -900 Descending FlightAware
12:52PM 33.9390 -118.3650 263° West 147 169 400 -1,440 Descending FlightAware
12:53PM 33.9380 -118.3800 265° West 147 169 100 -420 Descending FlightAware
12:53PM 33.9360 -118.4000 263° West 147 169 100  Level FlightAware